Time;durP1;ratioP1;P1;durP2;ratioP2;P2;SDS_P1;SDS_P2;PMS_P1;PMS_P2;Temp;Humidity;BMP_temperature;BMP_pressure;BME280_temperature;BME280_humidity;BME280_pressure;Samples;Min_cycle;Max_cycle;Signal;HPM_P1;HPM_P2
2022/10/26 00:01:12;;;;;;;21.77;11.88;;;;;;;10.17;77.08;97527.62;1679605;84;25762;-74
2022/10/26 00:03:43;;;;;;;21.60;11.88;;;;;;;10.18;77.07;97529.33;1696667;83;25784;-74
2022/10/26 00:06:15;;;;;;;18.52;11.73;;;;;;;10.17;77.09;97533.02;1696985;84;26803;-74
2022/10/26 00:08:42;;;;;;;19.80;12.07;;;;;;;10.16;77.14;97532.70;1696862;84;25672;-77
2022/10/26 00:11:10;;;;;;;18.10;11.35;;;;;;;10.17;77.19;97528.98;1696988;83;27377;-74
2022/10/26 00:13:39;;;;;;;22.20;11.55;;;;;;;10.17;77.23;97527.62;1696505;84;25655;-75
2022/10/26 00:16:14;;;;;;;22.40;11.43;;;;;;;10.19;77.29;97535.03;1697023;83;25762;-74
2022/10/26 00:18:40;;;;;;;24.43;13.13;;;;;;;10.20;77.29;97532.65;1664014;84;26172;-74
2022/10/26 00:21:09;;;;;;;24.47;14.03;;;;;;;10.21;77.25;97535.66;1663859;84;25753;-74
2022/10/26 00:23:36;;;;;;;20.62;12.07;;;;;;;10.20;77.30;97534.00;1664033;84;27442;-74
2022/10/26 00:26:04;;;;;;;22.35;11.97;;;;;;;10.23;77.33;97538.16;1664078;84;25785;-74
2022/10/26 00:28:31;;;;;;;16.45;10.23;;;;;;;10.25;77.37;97538.79;1663866;84;25500;-76
2022/10/26 00:31:08;;;;;;;19.25;10.78;;;;;;;10.27;77.35;97537.52;1663995;84;26773;-74
2022/10/26 00:33:35;;;;;;;12.75;9.18;;;;;;;10.26;77.40;97530.49;1664112;84;25850;-77
2022/10/26 00:36:02;;;;;;;16.07;9.88;;;;;;;10.21;77.39;97538.36;1629249;86;28344;-74
2022/10/26 00:38:29;;;;;;;17.42;10.75;;;;;;;10.20;77.47;97535.34;1663970;84;25719;-74
2022/10/26 00:40:55;;;;;;;18.62;10.05;;;;;;;10.22;77.61;97537.84;1664197;84;25814;-77
2022/10/26 00:43:30;;;;;;;19.12;9.90;;;;;;;10.20;77.61;97534.00;1664068;85;26222;-73
2022/10/26 00:45:59;;;;;;;14.58;9.53;;;;;;;10.22;77.67;97533.80;1663970;84;25742;-75
2022/10/26 00:48:30;;;;;;;15.88;10.03;;;;;;;10.25;77.73;97532.88;1629395;86;27380;-78
2022/10/26 00:51:02;;;;;;;15.30;9.00;;;;;;;10.26;77.76;97538.59;1664142;84;25769;-75
2022/10/26 00:53:30;;;;;;;14.13;8.78;;;;;;;10.27;77.78;97533.99;1664299;84;25883;-78
2022/10/26 00:55:57;;;;;;;13.30;9.10;;;;;;;10.29;77.80;97534.62;1641420;86;25838;-74
2022/10/26 00:58:25;;;;;;;13.70;8.40;;;;;;;10.29;77.78;97533.27;1649609;83;25775;-74
2022/10/26 01:00:52;;;;;;;11.20;8.53;;;;;;;10.30;77.81;97534.42;1667659;84;28302;-76
2022/10/26 01:03:20;;;;;;;13.48;9.18;;;;;;;10.31;77.82;97541.48;1682983;83;25331;-74
2022/10/26 01:05:49;;;;;;;18.80;8.98;;;;;;;10.27;77.72;97538.87;1660005;85;25752;-73
2022/10/26 01:08:17;;;;;;;14.63;8.90;;;;;;;10.26;77.77;97539.94;1682781;83;26834;-74
2022/10/26 01:10:44;;;;;;;12.78;8.60;;;;;;;10.24;77.76;97548.75;1683059;83;26434;-74
2022/10/26 01:13:12;;;;;;;20.10;10.50;;;;;;;10.21;77.77;97545.11;1683120;84;28471;-74
2022/10/26 01:16:02;;;;;;;16.82;9.08;;;;;;;10.17;77.83;97544.33;1664586;85;25795;-74
2022/10/26 01:18:55;;;;;;;14.93;9.13;;;;;;;10.13;77.91;97549.33;1687979;84;25771;-73
2022/10/26 01:21:57;;;;;;;15.40;10.63;;;;;;;10.10;78.01;97548.38;1714729;83;26235;-76
2022/10/26 01:24:52;;;;;;;17.23;9.70;;;;;;;10.07;78.14;97547.43;1714872;83;25744;-73
2022/10/26 01:27:40;;;;;;;14.20;9.35;;;;;;;10.07;78.22;97547.43;1689310;84;27491;-73
2022/10/26 01:30:38;;;;;;;17.30;9.10;;;;;;;10.04;78.27;97535.70;1696954;83;25723;-73
2022/10/26 01:33:47;;;;;;;13.18;9.58;;;;;;;10.08;78.33;97543.70;1696889;83;25742;-76
2022/10/26 01:36:22;;;;;;;10.23;7.78;;;;;;;10.07;78.34;97536.64;1696411;84;27259;-73
2022/10/26 01:39:20;;;;;;;10.70;7.80;;;;;;;10.03;78.31;97532.68;1699874;83;25830;-76
2022/10/26 01:41:54;;;;;;;12.28;8.00;;;;;;;10.01;78.28;97537.48;1716742;83;28322;-75
2022/10/26 01:44:45;;;;;;;14.60;8.63;;;;;;;10.00;78.30;97542.55;1706233;83;25742;-73
2022/10/26 01:47:16;;;;;;;17.95;10.03;;;;;;;10.00;78.36;97542.55;1610883;88;25737;-73
2022/10/26 01:49:47;;;;;;;14.05;9.78;;;;;;;10.01;78.40;97541.52;1654753;86;26052;-75
2022/10/26 01:52:14;;;;;;;13.78;9.45;;;;;;;10.01;78.40;97545.56;1651713;86;25824;-74
2022/10/26 01:54:41;;;;;;;16.67;9.73;;;;;;;9.99;78.34;97547.63;1654913;86;27335;-76
2022/10/26 01:57:11;;;;;;;13.05;8.85;;;;;;;9.96;78.33;97546.69;1654484;86;25775;-73
2022/10/26 01:59:43;;;;;;;12.30;8.58;;;;;;;9.91;78.35;97545.10;1654661;86;25861;-75
2022/10/26 02:02:45;;;;;;;12.85;8.70;;;;;;;9.87;78.40;97546.56;1655080;86;26156;-73
2022/10/26 02:05:29;;;;;;;14.25;8.85;;;;;;;9.80;78.44;97547.88;1653748;86;25849;-76
2022/10/26 02:08:16;;;;;;;13.70;8.03;;;;;;;9.79;78.48;97549.42;1604284;87;28245;-75
2022/10/26 02:11:06;;;;;;;15.75;9.10;;;;;;;9.77;78.62;97548.82;1610551;87;25913;-75
2022/10/26 02:14:03;;;;;;;13.78;9.03;;;;;;;9.73;78.70;97544.34;1661860;86;25817;-75
2022/10/26 02:16:52;;;;;;;12.13;8.83;;;;;;;9.70;78.79;97548.78;1616126;88;26831;-73
2022/10/26 02:19:43;;;;;;;12.00;8.63;;;;;;;9.69;78.94;97547.95;1616261;88;26930;-72
2022/10/26 02:22:24;;;;;;;13.65;9.08;;;;;;;9.69;79.06;97553.34;1587351;90;27415;-73
2022/10/26 02:24:53;;;;;;;14.87;9.95;;;;;;;9.69;79.15;97551.16;1613296;88;25802;-74
2022/10/26 02:27:27;;;;;;;14.73;8.00;;;;;;;9.71;79.20;97552.63;1587260;90;25804;-74
2022/10/26 02:29:57;;;;;;;16.25;7.72;;;;;;;9.72;79.25;97546.20;1613768;88;26683;-73
2022/10/26 02:32:28;;;;;;;9.53;7.00;;;;;;;9.76;79.27;97550.69;1587336;90;25776;-73
2022/10/26 02:34:57;;;;;;;11.05;8.15;;;;;;;9.77;79.27;97549.66;1613831;88;28164;-75
2022/10/26 02:37:26;;;;;;;12.50;8.83;;;;;;;9.75;79.29;97552.55;1587083;90;25827;-74
2022/10/26 02:39:55;;;;;;;14.07;8.73;;;;;;;9.78;79.34;97547.79;1614092;88;25840;-73
2022/10/26 02:42:24;;;;;;;9.43;7.67;;;;;;;9.80;79.32;97543.00;1587260;90;26018;-73
2022/10/26 02:44:57;;;;;;;13.45;8.60;;;;;;;9.79;79.16;97548.08;1638639;87;26375;-74
2022/10/26 02:47:25;;;;;;;10.55;7.58;;;;;;;9.79;79.17;97546.21;1678980;84;27394;-74
2022/10/26 02:49:54;;;;;;;11.97;8.25;;;;;;;9.79;79.15;97548.08;1678856;85;25797;-74
2022/10/26 02:52:41;;;;;;;15.35;7.90;;;;;;;9.74;78.97;97549.53;1678864;85;25792;-73
2022/10/26 02:55:27;;;;;;;11.03;7.95;;;;;;;9.68;78.88;97553.02;1726117;82;26038;-76
2022/10/26 02:57:58;;;;;;;12.88;6.30;;;;;;;9.63;78.66;97546.08;1729414;82;25796;-76
2022/10/26 03:00:24;;;;;;;9.28;6.45;;;;;;;9.58;78.65;97545.84;1713973;83;27588;-73
2022/10/26 03:03:01;;;;;;;15.18;6.97;;;;;;;9.55;78.51;97548.93;1698411;83;25701;-72
2022/10/26 03:08:00;;;;;;;12.20;5.90;;;;;;;9.47;78.53;97556.36;1626745;88;26037;-72
2022/10/26 03:10:27;;;;;;;10.58;6.00;;;;;;;9.39;78.65;97557.38;1626709;88;26925;-73
2022/10/26 03:12:54;;;;;;;9.53;5.47;;;;;;;9.36;78.74;97561.81;1626538;88;28360;-74
2022/10/26 03:15:21;;;;;;;6.92;4.72;;;;;;;9.36;78.79;97565.84;1626721;88;25797;-72
2022/10/26 03:17:47;;;;;;;9.55;4.92;;;;;;;9.36;78.81;97565.84;1626676;88;25944;-72
2022/10/26 03:20:14;;;;;;;14.13;6.33;;;;;;;9.35;78.80;97566.88;1626771;88;26877;-74
2022/10/26 03:22:40;;;;;;;17.30;6.67;;;;;;;9.30;78.80;97566.63;1626785;88;25737;-73
2022/10/26 03:25:08;;;;;;;10.28;5.83;;;;;;;9.25;78.99;97567.25;1627172;88;27392;-72
2022/10/26 03:27:34;;;;;;;11.05;5.60;;;;;;;9.18;79.21;97568.22;1626710;88;25794;-72
2022/10/26 03:30:01;;;;;;;12.37;6.90;;;;;;;9.19;79.35;97572.58;1626784;88;25853;-75
2022/10/26 03:32:28;;;;;;;16.85;7.20;;;;;;;9.19;79.39;97572.06;1626686;88;26102;-74
2022/10/26 03:34:54;;;;;;;10.03;5.00;;;;;;;9.21;79.32;97575.40;1626702;87;25735;-76
2022/10/26 03:37:21;;;;;;;8.48;4.35;;;;;;;9.22;79.26;97572.19;1626654;88;27533;-72
2022/10/26 03:39:47;;;;;;;9.48;4.62;;;;;;;9.14;79.00;97575.06;1626643;88;25746;-72
2022/10/26 03:42:14;;;;;;;9.43;5.42;;;;;;;9.08;78.91;97579.36;1626886;88;25847;-72
2022/10/26 03:44:41;;;;;;;8.98;4.87;;;;;;;9.00;78.92;97572.28;1626899;87;25984;-74
2022/10/26 03:47:07;;;;;;;12.37;5.35;;;;;;;9.00;78.95;97572.28;1626827;88;26261;-72
2022/10/26 03:49:34;;;;;;;13.22;7.60;;;;;;;8.94;78.69;97569.02;1626727;88;27446;-75
2022/10/26 03:52:01;;;;;;;14.25;7.97;;;;;;;8.89;78.71;97569.30;1626795;88;25806;-75
2022/10/26 03:54:28;;;;;;;11.43;7.17;;;;;;;8.85;78.83;97571.55;1626955;88;25792;-72
2022/10/26 03:56:54;;;;;;;7.83;4.95;;;;;;;8.83;78.79;97573.59;1627497;88;26047;-75
2022/10/26 03:59:21;;;;;;;7.10;4.87;;;;;;;8.79;78.71;97576.38;1625631;86;25811;-73
2022/10/26 04:01:47;;;;;;;6.97;4.03;;;;;;;8.74;78.63;97576.13;1622028;88;28413;-72
2022/10/26 04:04:14;;;;;;;8.80;4.78;;;;;;;8.71;78.43;97573.81;1646032;83;25777;-72
2022/10/26 04:06:41;;;;;;;6.37;4.90;;;;;;;8.67;78.40;97580.64;1727041;83;25727;-74
2022/10/26 04:09:07;;;;;;;6.28;4.22;;;;;;;8.61;78.28;97582.75;1721608;82;26017;-73
2022/10/26 04:11:34;;;;;;;9.55;4.83;;;;;;;8.51;78.23;97574.18;1697962;84;25652;-74
2022/10/26 04:14:01;;;;;;;7.92;4.78;;;;;;;8.49;78.41;97585.13;1697669;84;27528;-74
2022/10/26 04:16:27;;;;;;;6.87;4.80;;;;;;;8.48;78.41;97583.98;1688281;83;25737;-72
2022/10/26 04:18:54;;;;;;;7.50;5.00;;;;;;;8.45;78.35;97591.91;1697533;84;25746;-72
2022/10/26 04:21:20;;;;;;;8.03;6.20;;;;;;;8.40;78.16;97589.50;1697683;84;25979;-73
2022/10/26 04:23:47;;;;;;;11.43;6.90;;;;;;;8.38;78.15;97588.86;1688500;83;25622;-73
2022/10/26 04:26:13;;;;;;;10.70;7.42;;;;;;;8.33;78.08;97589.97;1697647;84;27440;-75
2022/10/26 04:28:40;;;;;;;11.97;7.05;;;;;;;8.28;77.98;97589.16;1697742;84;25726;-73
2022/10/26 04:31:07;;;;;;;14.30;7.78;;;;;;;8.22;77.94;97585.36;1688497;83;25765;-72
2022/10/26 04:33:33;;;;;;;13.70;7.37;;;;;;;8.19;78.00;97588.97;1697828;84;26604;-73
2022/10/26 04:36:00;;;;;;;9.90;7.50;;;;;;;8.16;77.84;97590.18;1697553;84;26162;-72
2022/10/26 04:38:27;;;;;;;10.48;7.30;;;;;;;8.13;77.84;97583.00;1688568;83;28404;-73
2022/10/26 04:40:53;;;;;;;10.35;5.97;;;;;;;8.09;77.85;97582.54;1697566;84;26944;-72
2022/10/26 04:43:20;;;;;;;10.15;5.72;;;;;;;8.08;77.80;97582.25;1697719;84;25704;-72
2022/10/26 04:45:46;;;;;;;13.85;5.10;;;;;;;8.05;77.79;97582.63;1688421;83;26745;-74
2022/10/26 04:48:13;;;;;;;7.08;3.87;;;;;;;8.01;77.71;97589.39;1697687;84;26750;-72
2022/10/26 04:50:40;;;;;;;9.60;4.97;;;;;;;7.98;77.75;97587.08;1697692;84;26913;-75
2022/10/26 04:53:08;;;;;;;9.48;5.03;;;;;;;7.93;77.85;97586.33;1688443;83;25692;-75
2022/10/26 04:55:35;;;;;;;10.10;4.65;;;;;;;7.91;77.88;97588.88;1697713;84;25738;-74
2022/10/26 04:58:02;;;;;;;9.68;4.70;;;;;;;7.87;77.84;97586.23;1697727;84;25992;-74
2022/10/26 05:00:31;;;;;;;6.40;4.53;;;;;;;7.84;77.81;97581.27;1655793;86;25792;-73
2022/10/26 05:03:06;;;;;;;6.97;4.42;;;;;;;7.79;77.64;97577.78;1680187;85;27466;-72
2022/10/26 05:05:35;;;;;;;6.95;4.25;;;;;;;7.73;77.70;97580.41;1677305;84;25747;-74
2022/10/26 05:08:03;;;;;;;5.92;3.90;;;;;;;7.70;77.91;97583.47;1677249;85;25703;-75
2022/10/26 05:10:30;;;;;;;7.62;4.17;;;;;;;7.69;77.91;97585.83;1677469;85;25987;-72
2022/10/26 05:12:58;;;;;;;6.42;3.27;;;;;;;7.66;77.79;97588.89;1677527;85;25683;-71
2022/10/26 05:15:27;;;;;;;7.83;4.10;;;;;;;7.62;77.69;97593.80;1677305;85;45690;-74
2022/10/26 05:17:58;;;;;;;6.62;3.37;;;;;;;7.58;77.71;97593.87;1676919;85;25758;-72
2022/10/26 05:20:29;;;;;;;7.25;3.30;;;;;;;7.55;77.69;97595.58;1677405;85;25837;-72
2022/10/26 05:22:56;;;;;;;9.00;4.40;;;;;;;7.51;77.75;97600.48;1677557;85;26051;-73
2022/10/26 05:25:24;;;;;;;8.45;4.78;;;;;;;7.51;77.86;97604.52;1677525;85;26758;-72
2022/10/26 05:27:50;;;;;;;13.53;6.45;;;;;;;7.52;77.98;97610.22;1677346;85;27043;-72
2022/10/26 05:30:17;;;;;;;11.75;6.28;;;;;;;7.45;77.96;97614.68;1677191;85;25723;-72
2022/10/26 05:32:44;;;;;;;14.85;7.50;;;;;;;7.41;78.11;97613.88;1677441;85;25889;-78
2022/10/26 05:35:10;;;;;;;13.45;7.50;;;;;;;7.37;78.22;97610.73;1677080;85;26036;-77
2022/10/26 05:37:37;;;;;;;20.05;6.92;;;;;;;7.39;78.29;97611.89;1677451;85;25972;-74
2022/10/26 05:40:07;;;;;;;15.10;6.75;;;;;;;7.38;78.17;97612.39;1677116;85;28322;-73
2022/10/26 05:42:33;;;;;;;23.42;8.45;;;;;;;7.34;78.04;97609.78;1677254;85;25251;-74
2022/10/26 05:45:00;;;;;;;18.90;8.78;;;;;;;7.25;78.07;97610.88;1677268;85;26481;-74
2022/10/26 05:47:27;;;;;;;19.77;7.92;;;;;;;7.19;78.26;97615.14;1677364;85;26945;-78
2022/10/26 05:49:53;;;;;;;17.37;8.25;;;;;;;7.15;78.44;97619.72;1677406;85;26258;-74
2022/10/26 05:52:20;;;;;;;27.35;9.08;;;;;;;7.17;78.69;97623.05;1677346;85;27372;-74
2022/10/26 05:54:46;;;;;;;17.40;8.10;;;;;;;7.21;78.74;97621.67;1677402;85;25770;-76
2022/10/26 05:57:13;;;;;;;13.08;6.53;;;;;;;7.22;78.68;97615.30;1677469;85;25767;-74
2022/10/26 05:59:40;;;;;;;15.83;6.85;;;;;;;7.26;78.63;97623.28;1677199;85;25979;-75
2022/10/26 06:02:33;;;;;;;13.45;6.10;;;;;;;7.27;78.57;97620.92;1677004;85;25742;-73
2022/10/26 06:05:04;;;;;;;15.03;5.95;;;;;;;7.27;78.48;97622.77;1675484;85;27403;-75
2022/10/26 06:07:32;;;;;;;14.10;5.90;;;;;;;7.27;78.51;97624.95;1656818;85;25787;-74
2022/10/26 06:09:59;;;;;;;14.98;6.08;;;;;;;7.26;78.49;97632.67;1661544;86;25810;-75
2022/10/26 06:12:26;;;;;;;10.78;5.53;;;;;;;7.28;78.54;97637.36;1661635;84;26148;-74
2022/10/26 06:14:54;;;;;;;12.30;5.72;;;;;;;7.28;78.51;97640.55;1661632;86;25711;-73
2022/10/26 06:17:44;;;;;;;18.70;5.87;;;;;;;7.29;78.52;97643.05;1661535;86;27603;-73
2022/10/26 06:20:49;;;;;;;12.50;6.10;;;;;;;7.30;78.55;97638.02;1660707;86;26488;-74
2022/10/26 06:23:30;;;;;;;12.75;6.08;;;;;;;7.32;78.64;97644.55;1630022;86;25816;-73
2022/10/26 06:26:25;;;;;;;14.10;7.53;;;;;;;7.33;78.76;97652.42;1642196;87;25852;-74
2022/10/26 06:29:06;;;;;;;21.20;9.50;;;;;;;7.33;78.86;97645.70;1643095;86;25817;-75
2022/10/26 06:31:33;;;;;;;17.90;8.90;;;;;;;7.35;78.97;97646.87;1643097;85;27384;-75
2022/10/26 06:34:00;;;;;;;19.27;10.30;;;;;;;7.38;79.10;97652.68;1642640;87;25752;-73
2022/10/26 06:36:28;;;;;;;19.17;9.83;;;;;;;7.41;79.25;97650.97;1642919;85;25816;-77
2022/10/26 06:39:02;;;;;;;19.82;11.12;;;;;;;7.44;79.43;97651.95;1643124;87;26053;-73
2022/10/26 06:41:35;;;;;;;19.67;12.65;;;;;;;7.50;79.53;97651.20;1643042;87;25946;-74
2022/10/26 06:44:03;;;;;;;22.07;14.47;;;;;;;7.56;79.66;97659.03;1642818;86;27451;-75
2022/10/26 06:46:47;;;;;;;32.90;16.10;;;;;;;7.63;79.82;97653.23;1642975;87;25885;-73
2022/10/26 06:49:31;;;;;;;32.42;17.32;;;;;;;7.70;79.88;97661.39;1643131;87;25811;-73
2022/10/26 06:52:08;;;;;;;23.30;15.08;;;;;;;7.78;79.93;97658.59;1540707;92;26790;-76
2022/10/26 06:54:46;;;;;;;24.90;14.65;;;;;;;7.84;80.04;97657.34;1535125;93;25846;-73
2022/10/26 06:57:15;;;;;;;21.62;11.48;;;;;;;7.89;80.21;97659.45;1535143;92;27535;-73
2022/10/26 06:59:49;;;;;;;16.82;9.88;;;;;;;7.97;80.29;97657.98;1526557;93;25803;-73
2022/10/26 07:02:17;;;;;;;14.58;9.88;;;;;;;8.04;80.41;97661.61;1475326;96;25943;-76
2022/10/26 07:04:44;;;;;;;16.77;10.80;;;;;;;8.12;80.53;97659.30;1456729;97;25985;-74
2022/10/26 07:07:21;;;;;;;13.60;7.90;;;;;;;8.19;80.55;97661.06;1479469;95;25784;-73
2022/10/26 07:09:48;;;;;;;14.45;8.28;;;;;;;8.27;80.54;97666.31;1450368;97;28497;-73
2022/10/26 07:12:15;;;;;;;15.28;8.70;;;;;;;8.36;80.64;97663.02;1450302;98;25938;-73
2022/10/26 07:14:41;;;;;;;14.55;7.53;;;;;;;8.46;80.57;97673.45;1450587;98;25813;-75
2022/10/26 07:17:09;;;;;;;15.80;8.85;;;;;;;8.55;80.52;97670.98;1450547;98;26179;-73
2022/10/26 07:19:36;;;;;;;12.85;9.05;;;;;;;8.61;80.55;97668.85;1450514;98;25961;-73
2022/10/26 07:22:02;;;;;;;13.28;9.00;;;;;;;8.70;80.49;97667.69;1450341;97;27569;-74
2022/10/26 07:24:30;;;;;;;18.92;9.83;;;;;;;8.80;80.48;97668.22;1450559;97;25872;-76
2022/10/26 07:26:58;;;;;;;15.00;8.93;;;;;;;8.90;80.44;97670.06;1450548;98;25867;-76
2022/10/26 07:29:25;;;;;;;15.95;8.65;;;;;;;9.03;80.49;97665.30;1464390;97;26051;-73
2022/10/26 07:31:52;;;;;;;18.98;8.80;;;;;;;9.20;80.44;97673.91;1497346;95;25968;-75
2022/10/26 07:34:19;;;;;;;18.05;8.55;;;;;;;9.39;80.41;97665.14;1497366;95;26857;-74
2022/10/26 07:36:46;;;;;;;16.93;8.83;;;;;;;9.60;80.30;97670.45;1497350;95;25753;-73
2022/10/26 07:39:14;;;;;;;14.03;8.85;;;;;;;9.82;80.15;97664.95;1515584;92;25955;-73
2022/10/26 07:41:41;;;;;;;15.60;8.48;;;;;;;10.03;79.98;97663.48;1540688;93;26046;-75
2022/10/26 07:44:07;;;;;;;14.70;8.00;;;;;;;10.25;79.83;97660.19;1584731;90;25793;-74
2022/10/26 07:46:34;;;;;;;11.60;8.38;;;;;;;10.44;79.75;97662.93;1556908;92;27418;-74
2022/10/26 07:49:01;;;;;;;18.32;9.03;;;;;;;10.64;79.49;97661.61;1600755;89;25833;-73
2022/10/26 07:51:28;;;;;;;18.10;8.10;;;;;;;10.86;79.40;97658.23;1601692;89;25854;-73
2022/10/26 07:53:55;;;;;;;17.73;9.53;;;;;;;11.09;79.23;97658.64;1601855;89;25996;-73
2022/10/26 07:56:21;;;;;;;15.40;9.00;;;;;;;11.29;78.92;97660.48;1601678;89;25569;-76
2022/10/26 07:58:48;;;;;;;17.50;10.18;;;;;;;11.50;78.79;97664.30;1601779;89;27448;-73
2022/10/26 08:01:16;;;;;;;19.73;10.35;;;;;;;11.70;78.68;97648.88;1615971;87;25833;-73
2022/10/26 08:03:42;;;;;;;21.90;10.13;;;;;;;11.89;78.40;97655.28;1608741;89;25850;-74
2022/10/26 08:06:09;;;;;;;17.35;8.63;;;;;;;12.06;78.22;97651.59;1638684;87;26035;-73
2022/10/26 08:08:36;;;;;;;17.60;8.48;;;;;;;12.26;78.22;97649.61;1641270;87;25680;-73
2022/10/26 08:11:05;;;;;;;13.85;8.63;;;;;;;12.46;77.96;97650.33;1641390;87;27415;-73
2022/10/26 08:13:34;;;;;;;12.88;7.70;;;;;;;12.61;77.56;97649.51;1641649;87;25446;-73
2022/10/26 08:16:04;;;;;;;13.35;7.55;;;;;;;12.79;77.57;97648.78;1641424;86;25800;-73
2022/10/26 08:18:31;;;;;;;12.25;7.20;;;;;;;12.98;77.25;97651.85;1641694;87;26002;-74
2022/10/26 08:21:08;;;;;;;14.33;6.65;;;;;;;13.18;77.20;97650.88;1641545;87;25828;-73
2022/10/26 08:23:35;;;;;;;12.78;6.72;;;;;;;13.38;77.02;97643.41;1640982;87;28233;-73
2022/10/26 08:26:03;;;;;;;10.43;4.70;;;;;;;13.63;76.87;97642.02;1641471;87;25780;-74
2022/10/26 08:28:30;;;;;;;7.78;3.15;;;;;;;13.86;76.71;97639.98;1641419;87;25764;-74
2022/10/26 08:30:56;;;;;;;7.55;3.30;;;;;;;14.12;76.05;97637.48;1641317;87;26014;-73
2022/10/26 08:33:25;;;;;;;6.35;3.20;;;;;;;14.36;75.88;97633.82;1641526;86;25685;-74
2022/10/26 08:36:01;;;;;;;8.48;3.60;;;;;;;14.62;75.45;97634.81;1641644;86;27411;-75
2022/10/26 08:38:28;;;;;;;10.98;3.60;;;;;;;14.84;75.18;97634.30;1582768;90;25814;-74
2022/10/26 08:40:57;;;;;;;10.68;4.00;;;;;;;15.09;74.78;97632.23;1607079;89;25758;-76
2022/10/26 08:43:35;;;;;;;6.30;3.95;;;;;;;15.35;74.71;97633.11;1607020;89;26066;-74
2022/10/26 08:46:16;;;;;;;8.88;3.62;;;;;;;15.62;74.17;97628.59;1606712;89;25858;-77
2022/10/26 08:48:50;;;;;;;9.38;3.80;;;;;;;15.86;73.54;97622.05;1606886;89;28283;-74
2022/10/26 08:51:29;;;;;;;7.55;3.72;;;;;;;15.99;72.79;97623.14;1604676;89;25819;-75
2022/10/26 08:54:07;;;;;;;8.28;3.40;;;;;;;16.12;72.47;97623.41;1606980;89;25824;-74
2022/10/26 08:56:44;;;;;;;11.12;3.65;;;;;;;16.24;71.80;97623.37;1573060;91;26048;-76
2022/10/26 08:59:37;;;;;;;8.43;3.42;;;;;;;16.37;71.82;97623.92;1573108;91;25310;-73
2022/10/26 09:02:12;;;;;;;9.45;3.40;;;;;;;16.52;71.31;97627.48;1588425;88;27459;-74
2022/10/26 09:04:40;;;;;;;11.03;3.70;;;;;;;16.56;70.55;97628.63;1589715;88;25760;-74
2022/10/26 09:07:34;;;;;;;9.00;3.77;;;;;;;16.67;70.33;97633.22;1590215;90;25854;-77
2022/10/26 09:10:26;;;;;;;10.35;5.25;;;;;;;16.77;70.45;97624.43;1590395;88;26142;-75
2022/10/26 09:13:03;;;;;;;6.20;3.62;;;;;;;16.88;69.93;97625.72;1589799;90;26267;-74
2022/10/26 09:15:50;;;;;;;11.15;4.67;;;;;;;17.06;69.70;97623.82;1566089;91;27428;-74
2022/10/26 09:18:40;;;;;;;17.62;11.28;;;;;;;17.15;69.34;97620.96;1563302;91;26513;-74
2022/10/26 09:21:36;;;;;;;14.68;9.15;;;;;;;17.25;68.65;97617.06;1566110;91;25426;-76
2022/10/26 09:24:15;;;;;;;12.20;5.92;;;;;;;17.29;68.42;97623.11;1565577;91;26848;-72
2022/10/26 09:27:10;;;;;;;5.08;2.90;;;;;;;17.41;68.50;97620.30;1567859;90;25842;-72
2022/10/26 09:29:42;;;;;;;8.80;5.05;;;;;;;17.48;67.40;97623.70;1564920;90;27408;-72
2022/10/26 09:32:35;;;;;;;10.93;5.87;;;;;;;17.56;67.45;97620.53;1513293;93;25895;-76
2022/10/26 09:35:07;;;;;;;6.97;3.67;;;;;;;17.67;67.41;97621.53;1511695;94;25856;-72
2022/10/26 09:37:44;;;;;;;7.62;3.50;;;;;;;17.84;66.79;97624.23;1507479;93;26586;-72
2022/10/26 09:40:30;;;;;;;8.38;3.58;;;;;;;17.98;66.47;97626.89;1509791;93;25882;-75
2022/10/26 09:43:23;;;;;;;5.62;3.22;;;;;;;18.09;65.78;97618.28;1509036;93;28252;-72
2022/10/26 09:45:53;;;;;;;7.50;3.90;;;;;;;18.20;65.35;97622.25;1508082;93;25782;-72
2022/10/26 09:48:44;;;;;;;11.18;5.42;;;;;;;18.33;65.13;97632.80;1509902;95;26034;-72
2022/10/26 09:51:11;;;;;;;11.78;5.03;;;;;;;18.46;64.87;97626.65;1510065;93;25977;-72
2022/10/26 09:53:37;;;;;;;13.85;6.80;;;;;;;18.58;64.26;97626.00;1546875;92;25925;-72
2022/10/26 09:56:11;;;;;;;9.68;4.30;;;;;;;18.66;63.26;97627.72;1573802;89;28347;-72
2022/10/26 09:58:42;;;;;;;7.00;3.42;;;;;;;18.67;63.13;97627.18;1573977;91;25437;-72
2022/10/26 10:04:16;;;;;;;9.33;2.02;;;;;;;18.72;62.37;97629.95;1508683;94;26589;-75
2022/10/26 10:06:45;;;;;;;6.53;2.98;;;;;;;18.82;61.53;97621.88;1505922;94;26890;-73
2022/10/26 10:09:20;;;;;;;3.58;1.60;;;;;;;18.89;61.80;97625.75;1523492;92;27459;-71
2022/10/26 10:12:01;;;;;;;5.35;2.22;;;;;;;18.90;60.01;97634.24;1556568;91;25677;-75
2022/10/26 10:14:35;;;;;;;3.25;1.55;;;;;;;18.94;60.60;97627.18;1556665;91;26088;-72
2022/10/26 10:17:09;;;;;;;2.15;1.10;;;;;;;19.06;59.23;97625.93;1550164;91;26875;-71
2022/10/26 10:19:37;;;;;;;2.55;1.40;;;;;;;19.10;59.53;97622.11;1565430;90;25835;-71
2022/10/26 10:25:00;;;;;;;5.17;1.50;;;;;;;19.02;58.93;97617.95;1582024;90;25921;-73
2022/10/26 10:27:29;;;;;;;5.20;1.47;;;;;;;18.96;58.48;97614.87;1568019;90;26485;-72
2022/10/26 10:29:57;;;;;;;5.20;2.05;;;;;;;18.92;58.85;97608.83;1582419;90;25945;-73
2022/10/26 10:32:29;;;;;;;2.15;1.50;;;;;;;19.05;58.76;97610.59;1568039;91;25319;-72
2022/10/26 10:34:58;;;;;;;2.83;1.40;;;;;;;19.18;58.06;97607.97;1585872;89;27409;-74
2022/10/26 10:37:32;;;;;;;2.52;1.37;;;;;;;19.34;57.92;97602.88;1586487;89;25805;-73
2022/10/26 10:40:04;;;;;;;2.83;1.47;;;;;;;19.53;57.92;97601.95;1586433;89;25849;-74
2022/10/26 10:42:36;;;;;;;2.42;1.20;;;;;;;19.74;57.25;97594.69;1584585;90;26244;-72
2022/10/26 10:45:05;;;;;;;2.20;1.30;;;;;;;19.94;57.06;97598.06;1555319;91;25741;-74
2022/10/26 10:47:34;;;;;;;3.10;1.70;;;;;;;19.96;55.89;97602.20;1555170;91;28069;-73
2022/10/26 10:50:09;;;;;;;5.08;1.98;;;;;;;19.90;56.20;97602.45;1555069;91;25852;-73
2022/10/26 10:52:36;;;;;;;5.67;1.90;;;;;;;20.02;56.23;97598.40;1514800;94;25514;-73
2022/10/26 10:55:20;;;;;;;5.30;2.17;;;;;;;19.91;55.66;97599.45;1505307;94;25981;-73
2022/10/26 10:58:16;;;;;;;4.60;1.90;;;;;;;19.91;55.66;97599.45;1520154;92;25835;-73
2022/10/26 11:00:47;;;;;;;6.35;2.17;;;;;;;19.76;55.47;97594.70;1519522;93;27074;-72
2022/10/26 11:03:47;;;;;;;2.90;1.60;;;;;;;19.61;55.65;97602.83;1519003;93;25869;-73
2022/10/26 11:06:21;;;;;;;6.30;1.75;;;;;;;19.66;55.55;97597.39;1519412;93;26503;-72
2022/10/26 11:09:02;;;;;;;6.40;2.10;;;;;;;19.55;55.13;97598.96;1457027;97;26011;-73
2022/10/26 11:11:40;;;;;;;3.62;1.72;;;;;;;19.42;55.74;97596.93;1457074;97;25921;-73
2022/10/26 11:14:27;;;;;;;1.65;1.40;;;;;;;19.30;55.84;97594.92;1457095;97;28189;-73
2022/10/26 11:17:08;;;;;;;3.42;1.50;;;;;;;19.17;55.84;97596.73;1456948;97;25856;-72
2022/10/26 11:19:52;;;;;;;3.87;1.82;;;;;;;19.03;55.99;97596.34;1456947;97;25874;-75
2022/10/26 11:22:27;;;;;;;2.45;1.37;;;;;;;19.21;56.27;97600.58;1445111;98;26811;-72
2022/10/26 11:25:08;;;;;;;4.80;1.95;;;;;;;19.53;55.92;97596.48;1423140;99;26174;-71
2022/10/26 11:27:52;;;;;;;3.05;1.67;;;;;;;19.74;54.73;97591.95;1428260;98;27446;-73
2022/10/26 11:30:24;;;;;;;5.78;2.70;;;;;;;20.01;54.67;97591.81;1457025;96;26049;-73
2022/10/26 11:33:12;;;;;;;;;;;;;;;20.36;55.07;97593.35;1473904;96;26102;-74
2022/10/26 11:35:50;;;;;;;3.37;1.50;;;;;;;20.58;53.18;97594.50;1471560;96;26185;-74
2022/10/26 11:38:40;;;;;;;4.67;1.10;;;;;;;20.62;53.89;97598.91;1469536;96;25839;-75
2022/10/26 11:41:48;;;;;;;4.15;1.25;;;;;;;20.54;53.64;97602.16;1471543;96;27460;-74
2022/10/26 11:44:40;;;;;;;2.62;1.15;;;;;;;20.39;53.10;97593.36;1470551;96;26146;-78
2022/10/26 11:47:34;;;;;;;2.47;1.05;;;;;;;20.54;53.17;97595.30;1467350;94;25933;-75
2022/10/26 11:50:26;;;;;;;2.00;1.07;;;;;;;21.05;52.91;97603.07;1535909;92;26020;-77
2022/10/26 11:52:58;;;;;;;1.87;1.00;;;;;;;21.05;52.91;97603.07;1536349;93;25874;-74
2022/10/26 11:55:25;;;;;;;2.55;1.40;;;;;;;21.34;52.10;97596.52;1449559;98;27493;-74
2022/10/26 11:57:53;;;;;;;3.20;1.20;;;;;;;21.48;51.24;97601.73;1449440;98;25900;-77
2022/10/26 12:00:22;;;;;;;3.33;1.40;;;;;;;21.26;50.37;97602.55;1449631;97;25931;-78
2022/10/26 12:03:02;;;;;;;2.72;1.30;;;;;;;21.08;50.61;97591.00;1439842;98;26207;-75
2022/10/26 12:05:46;;;;;;;4.37;1.87;;;;;;;21.28;51.00;97603.10;1429693;100;25820;-74
2022/10/26 12:08:29;;;;;;;7.85;2.58;;;;;;;21.48;50.85;97604.48;1452668;98;27452;-74